Data for 03/17/2005

Time Sea-Level Adjusted Pressure Absolute Pressure Temperature Relative Humidity Dew Point   
(mb) (inHg) (mb) (inHg) (C) (F) (%) (C) (F)
00:05 1003 29.62 832 24.57 2.4 36.3 67 -3 26.5
00:10 1003 29.62 832 24.57 2.4 36.4 68 -2.9 26.8
00:15 1003 29.62 832 24.57 2.5 36.5 67 -2.9 26.7
00:20 1003 29.62 832 24.57 2.6 36.6 68 -2.8 26.9
00:25 1003 29.62 832 24.57 2.6 36.7 67 -3 26.7
00:30 1003 29.62 832 24.57 2.6 36.7 67 -2.8 27
00:35 1002 29.59 832 24.57 2.6 36.6 67 -2.9 26.8
00:40 1002 29.59 832 24.57 2.6 36.6 67 -2.9 26.7
00:45 1002 29.59 832 24.57 2.6 36.7 66 -3.1 26.5
00:50 1002 29.59 832 24.57 2.6 36.7 66 -3 26.6
00:55 1002 29.59 832 24.57 2.6 36.8 67 -3 26.7
01:00 1002 29.59 831 24.54 2.6 36.6 67 -2.9 26.7
01:05 1002 29.59 831 24.54 2.5 36.5 68 -2.8 27
01:10 1002 29.59 831 24.54 2.1 35.9 70 -2.8 27
01:15 1002 29.59 831 24.54 1.8 35.3 71 -2.8 26.9
01:20 1002 29.59 831 24.54 1.7 35 72 -2.8 26.9
01:25 1002 29.59 831 24.54 1.7 35 73 -2.7 27.1
01:30 1002 29.59 831 24.54 1.7 35 72 -2.8 27
01:35 1002 29.59 831 24.54 1.6 34.8 73 -2.8 27
01:40 1002 29.59 831 24.54 1.5 34.7 73 -2.7 27.1
01:45 1002 29.59 831 24.54 1.5 34.8 73 -2.8 27
01:50 1002 29.59 831 24.54 1.6 34.9 72 -3 26.6
01:55 1002 29.59 831 24.54 1.7 35 72 -2.9 26.7
02:00 1002 29.59 831 24.54 1.7 35.1 70 -3.1 26.4
02:05 1002 29.59 831 24.54 1.9 35.4 66 -3.7 25.3
02:10 1001 29.56 831 24.54 2.2 35.9 64 -4 24.8
02:15 1001 29.56 831 24.54 2.5 36.4 64 -3.7 25.3
02:20 1001 29.56 830 24.51 2.4 36.3 59 -4.9 23.3
02:25 1001 29.56 830 24.51 2.6 36.7 62 -4 24.9
02:30 1001 29.56 830 24.51 2.6 36.7 57 -5 23
02:35 1001 29.56 830 24.51 2.6 36.7 62 -3.9 25
02:40 1001 29.56 830 24.51 2.3 36.1 65 -3.7 25.4
02:45 1001 29.56 830 24.51 2 35.6 64 -4 24.7
02:50 1001 29.56 830 24.51 1.9 35.3 67 -3.7 25.3
02:55 1001 29.56 830 24.51 1.5 34.7 70 -3.4 25.8
03:00 1001 29.56 830 24.51 1.2 34.2 72 -3.2 26.2
03:05 1001 29.56 830 24.51 1.2 34.1 72 -3.4 25.9
03:10 1001 29.56 830 24.51 1.3 34.3 71 -3.5 25.7
03:15 1001 29.56 830 24.51 1.4 34.5 70 -3.6 25.6
03:20 1001 29.56 830 24.51 1.4 34.6 69 -3.6 25.4
03:25 1000 29.53 830 24.51 1.6 34.9 65 -4.3 24.3
03:30 1000 29.53 830 24.51 1.9 35.4 66 -3.7 25.4
03:35 1000 29.53 830 24.51 1.7 35.1 67 -3.7 25.4
03:40 1000 29.53 830 24.51 1.7 35 65 -4.1 24.6
03:45 1000 29.53 830 24.51 1.8 35.2 63 -4.4 24.1
03:50 1000 29.53 829 24.48 2.1 35.7 63 -4.4 24.1
03:55 1000 29.53 829 24.48 2 35.7 63 -4.2 24.4
04:00 1000 29.53 829 24.48 2 35.6 63 -4.4 24.1
04:05 1000 29.53 829 24.48 2.3 36.1 55 -5.9 21.4
04:10 1000 29.53 829 24.48 3.1 37.5 52 -5.9 21.3
04:15 1000 29.53 829 24.48 3.2 37.8 54 -5.3 22.5
04:20 1000 29.53 829 24.48 2.9 37.3 54 -5.5 22.1
04:25 1000 29.53 829 24.48 2.9 37.3 56 -4.9 23.2
04:30 1000 29.53 829 24.48 2.8 37 59 -4.4 24
04:35 1000 29.53 829 24.48 2.1 35.8 61 -4.5 23.8
04:40 1001 29.56 830 24.51 2 35.6 63 -4.3 24.3
04:45 1001 29.56 830 24.51 2.1 35.8 74 -2.1 28.1
04:50 1001 29.56 831 24.54 1 33.8 91 -0.4 31.3
04:55 1001 29.56 831 24.54 0.1 32.2 96 -0.5 31.1
05:00 1001 29.56 831 24.54 -0.2 31.7 97 -0.6 31
05:05 1001 29.56 831 24.54 -0.3 31.5 98 -0.6 30.9
05:10 1001 29.56 831 24.54 -0.4 31.3 98 -0.6 30.9
05:15 1001 29.56 831 24.54 -0.5 31.1 99 -0.7 30.7
05:20 1001 29.56 831 24.54 -0.6 31 99 -0.7 30.7
05:25 1002 29.59 831 24.54 -0.5 31.1 99 -0.7 30.7
05:30 1002 29.59 831 24.54 -0.5 31.1 99 -0.6 30.8
05:35 1002 29.59 831 24.54 -0.4 31.3 98 -0.7 30.8
05:40 1002 29.59 831 24.54 -0.4 31.3 97 -0.8 30.6
05:45 1002 29.59 831 24.54 -0.3 31.5 94 -1.1 30.1
05:50 1002 29.59 831 24.54 -0.3 31.4 93 -1.3 29.7
05:55 1002 29.59 831 24.54 -0.3 31.4 94 -1.2 29.8
06:00 1002 29.59 831 24.54 -0.6 30.9 95 -1.3 29.7
06:05 1002 29.59 832 24.57 -0.8 30.6 98 -1 30.1
06:10 1003 29.62 832 24.57 -0.9 30.4 98 -1.1 30
06:15 1003 29.62 832 24.57 -1.3 29.6 99 -1.5 29.3
06:20 1003 29.62 832 24.57 -1.3 29.6 100 -1.4 29.5
06:25 1003 29.62 832 24.57 -1.3 29.6 100 -1.4 29.5
06:30 1003 29.62 833 24.6 -1.3 29.6 99 -1.4 29.5
06:35 1004 29.65 833 24.6 -1.3 29.6 99 -1.4 29.4
06:40 1004 29.65 833 24.6 -1.3 29.7 99 -1.3 29.6
06:45 1004 29.65 833 24.6 -1.3 29.7 99 -1.4 29.4
06:50 1004 29.65 833 24.6 -1.3 29.7 99 -1.4 29.6
06:55 1004 29.65 833 24.6 -1.3 29.7 98 -1.5 29.2
07:00 1004 29.65 833 24.6 -1.4 29.4 98 -1.7 28.9
07:05 1004 29.65 833 24.6 -1.5 29.4 98 -1.7 28.9
07:10 1004 29.65 833 24.6 -1.4 29.4 98 -1.7 28.9
07:15 1004 29.65 833 24.6 -1.4 29.5 98 -1.7 29
07:20 1004 29.65 833 24.6 -1.3 29.6 97 -1.7 28.9
07:25 1004 29.65 833 24.6 -1.3 29.6 97 -1.7 28.9
07:30 1004 29.65 833 24.6 -1.3 29.7 97 -1.6 29.1
07:35 1004 29.65 833 24.6 -1.1 30 96 -1.7 29
07:40 1004 29.65 833 24.6 -1.1 30 96 -1.7 29
07:45 1004 29.65 833 24.6 -1 30.2 96 -1.6 29.1
07:50 1004 29.65 833 24.6 -0.8 30.5 95 -1.5 29.2
07:55 1004 29.65 833 24.6 -0.7 30.8 93 -1.8 28.8
08:00 1004 29.65 833 24.6 -0.7 30.7 93 -1.8 28.7
08:05 1004 29.65 833 24.6 -0.6 30.8 90 -2.1 28.3
08:10 1004 29.65 834 24.63 -0.8 30.6 89 -2.4 27.6
08:15 1005 29.68 834 24.63 -0.7 30.8 85 -2.9 26.8
08:20 1005 29.68 834 24.63 -0.4 31.3 76 -4.2 24.5
08:25 1005 29.68 834 24.63 -0.2 31.6 77 -3.8 25.1
08:30 1005 29.68 834 24.63 -0.1 31.9 71 -4.7 23.6
08:35 1005 29.68 834 24.63 0 32.1 71 -4.5 23.8
08:40 1005 29.68 834 24.63 0.1 32.2 69 -4.9 23.2
08:45 1005 29.68 834 24.63 0.2 32.3 72 -4.3 24.3
08:50 1005 29.68 834 24.63 0.1 32.1 69 -5 23
08:55 1005 29.68 834 24.63 -0 31.9 70 -4.8 23.3
09:00 1005 29.68 834 24.63 -0.1 31.8 70 -4.9 23.3
09:05 1005 29.68 834 24.63 -0.1 31.8 69 -5 23
09:10 1005 29.68 834 24.63 0 32.1 71 -4.6 23.7
09:15 1005 29.68 834 24.63 0.1 32.2 68 -5.2 22.7
09:20 1005 29.68 835 24.66 0.3 32.5 64 -5.7 21.8
09:25 1005 29.68 835 24.66 0.2 32.4 65 -5.5 22
09:30 1005 29.68 835 24.66 0.3 32.5 66 -5.3 22.4
09:35 1005 29.68 835 24.66 0.4 32.8 65 -5.4 22.3
09:40 1005 29.68 835 24.66 0.4 32.8 64 -5.6 21.8
09:45 1005 29.68 835 24.66 0.6 33 63 -5.7 21.7
09:50 1005 29.68 835 24.66 0.6 33 61 -6 21.2
09:55 1005 29.68 835 24.66 0.5 32.9 61 -6.2 20.8
10:00 1006 29.71 835 24.66 0.5 32.9 60 -6.4 20.6
10:05 1006 29.71 835 24.66 0.3 32.6 60 -6.5 20.2
10:10 1006 29.71 835 24.66 0.6 33 60 -6.3 20.7
10:15 1006 29.71 835 24.66 0.6 33.1 59 -6.4 20.5
10:20 1006 29.71 835 24.66 0.5 32.9 60 -6.4 20.6
10:25 1006 29.71 835 24.66 0.5 32.9 59 -6.7 19.9
10:30 1006 29.71 835 24.66 0.6 33.1 58 -6.7 19.9
10:35 1006 29.71 835 24.66 0.8 33.5 58 -6.5 20.3
10:40 1006 29.71 835 24.66 1 33.9 58 -6.3 20.7
10:45 1006 29.71 835 24.66 0.9 33.6 57 -6.7 20
10:50 1006 29.71 835 24.66 0.9 33.6 60 -6.1 21
10:55 1006 29.71 835 24.66 0.7 33.2 57 -6.8 19.7
11:00 1006 29.71 835 24.66 0.6 33 57 -7 19.5
11:05 1006 29.71 835 24.66 0.7 33.2 58 -6.7 19.9
11:10 1006 29.71 836 24.69 1.2 34.1 55 -6.9 19.6
11:15 1006 29.71 836 24.69 1.6 34.9 54 -6.7 19.9
11:20 1006 29.71 835 24.66 1.9 35.5 52 -7 19.4
11:25 1006 29.71 836 24.69 1.9 35.3 52 -7 19.4
11:30 1006 29.71 836 24.69 1.8 35.3 52 -7 19.4
11:35 1006 29.71 836 24.69 1.7 35 51 -7.4 18.7
11:40 1006 29.71 836 24.69 2 35.6 51 -7 19.3
11:45 1007 29.74 836 24.69 2.2 35.9 50 -7.2 19
11:50 1007 29.74 836 24.69 2.3 36.1 52 -6.7 20
11:55 1006 29.71 836 24.69 1.8 35.2 53 -6.7 19.9
12:00 1006 29.71 836 24.69 1.6 34.9 51 -7.4 18.7
12:05 1007 29.74 836 24.69 1.5 34.6 54 -7 19.4
12:10 1007 29.74 836 24.69 1.4 34.6 54 -7 19.4
12:15 1007 29.74 836 24.69 1.4 34.5 58 -6.1 21.1
12:20 1007 29.74 836 24.69 0.2 32.4 72 -4.2 24.5
12:25 1007 29.74 836 24.69 -0.5 31.1 76 -4.2 24.4
12:30 1007 29.74 836 24.69 -0.7 30.7 77 -4.2 24.5
12:35 1007 29.74 836 24.69 -0.6 30.9 78 -3.9 24.9
12:40 1007 29.74 836 24.69 -0.6 30.8 78 -4 24.7
12:45 1007 29.74 836 24.69 -0.6 30.8 82 -3.3 26
12:50 1007 29.74 836 24.69 -0.9 30.4 83 -3.4 25.9
12:55 1007 29.74 836 24.69 -0.7 30.8 81 -3.5 25.7
13:00 1007 29.74 836 24.69 -0.7 30.7 84 -3 26.5
13:05 1007 29.74 836 24.69 -0.5 31 81 -3.5 25.8
13:10 1007 29.74 836 24.69 -0.9 30.4 86 -3 26.6
13:15 1007 29.74 836 24.69 -0.6 30.9 87 -2.6 27.3
13:20 1007 29.74 836 24.69 -0.4 31.2 87 -2.3 27.9
13:25 1007 29.74 836 24.69 -0.1 31.7 84 -2.6 27.3
13:30 1007 29.74 836 24.69 0.3 32.5 82 -2.5 27.6
13:35 1007 29.74 836 24.69 0 32 83 -2.6 27.3
13:40 1007 29.74 836 24.69 -0.5 31.2 83 -3 26.6
13:45 1007 29.74 836 24.69 -0.5 31.2 81 -3.4 25.9
13:50 1007 29.74 836 24.69 -0.2 31.7 76 -3.8 25.1
13:55 1007 29.74 836 24.69 -0 31.9 76 -3.7 25.3
14:00 1007 29.74 836 24.69 0.1 32.1 78 -3.4 25.9
14:05 1007 29.74 837 24.72 -0 31.9 79 -3.2 26.3
14:10 1007 29.74 836 24.69 0.1 32.1 78 -3.4 25.9
14:15 1007 29.74 836 24.69 0.1 32.1 78 -3.3 26.1
14:20 1007 29.74 837 24.72 0.2 32.4 78 -3.1 26.4
14:25 1007 29.74 837 24.72 0.4 32.8 78 -3 26.5
14:30 1008 29.77 837 24.72 0.5 32.9 76 -3.2 26.2
14:35 1008 29.77 837 24.72 0.4 32.8 77 -3.1 26.4
14:40 1008 29.77 837 24.72 0.6 33 78 -2.8 27
14:45 1008 29.77 837 24.72 0.7 33.2 77 -3 26.6
14:50 1008 29.77 837 24.72 0.7 33.3 76 -3.1 26.5
14:55 1008 29.77 837 24.72 0.8 33.4 75 -3.1 26.4
15:00 1008 29.77 837 24.72 0.8 33.5 75 -3.2 26.3
15:05 1008 29.77 837 24.72 0.9 33.7 74 -3.1 26.4
15:10 1008 29.77 837 24.72 0.9 33.6 74 -3.3 26
15:15 1008 29.77 837 24.72 0.9 33.6 74 -3.2 26.3
15:20 1008 29.77 837 24.72 0.9 33.5 75 -3.1 26.3
15:25 1008 29.77 837 24.72 0.6 33.1 77 -3 26.7
15:30 1008 29.77 837 24.72 0.4 32.7 76 -3.3 26
15:35 1008 29.77 837 24.72 0.1 32.1 81 -2.7 27.1
15:40 1008 29.77 837 24.72 -0 32 82 -2.7 27.1
15:45 1008 29.77 837 24.72 -0.2 31.6 85 -2.4 27.6
15:50 1008 29.77 837 24.72 -0.3 31.5 85 -2.5 27.5
15:55 1008 29.77 838 24.75 -0.4 31.3 87 -2.4 27.8
16:00 1008 29.77 838 24.75 -0.5 31.1 88 -2.3 27.9
16:05 1008 29.77 838 24.75 -0.7 30.8 89 -2.3 27.9
16:10 1008 29.77 838 24.75 -0.7 30.7 88 -2.6 27.4
16:15 1009 29.8 838 24.75 -1 30.1 89 -2.6 27.3
16:20 1009 29.8 838 24.75 -1 30.2 89 -2.5 27.5
16:25 1009 29.8 838 24.75 -0.9 30.5 89 -2.5 27.5
16:30 1009 29.8 838 24.75 -0.9 30.3 90 -2.4 27.6
16:35 1009 29.8 838 24.75 -0.9 30.4 89 -2.5 27.5
16:40 1009 29.8 838 24.75 -0.9 30.4 89 -2.4 27.7
16:45 1009 29.8 838 24.75 -0.9 30.3 89 -2.5 27.5
16:50 1009 29.8 838 24.75 -1.1 30.1 90 -2.5 27.5
16:55 1009 29.8 838 24.75 -1.1 30 91 -2.4 27.7
17:00 1009 29.8 838 24.75 -1.2 29.9 91 -2.5 27.6
17:05 1009 29.8 838 24.75 -1.4 29.4 91 -2.7 27.1
17:10 1009 29.8 839 24.78 -1.5 29.3 91 -2.7 27.1
17:15 1009 29.8 839 24.78 -1.6 29.1 92 -2.7 27.1
17:20 1009 29.8 839 24.78 -1.6 29.2 93 -2.6 27.3
17:25 1009 29.8 839 24.78 -1.4 29.4 91 -2.7 27.1
17:30 1010 29.83 839 24.78 -1.6 29.2 91 -2.9 26.8
17:35 1010 29.83 839 24.78 -1.7 29 91 -3 26.6
17:40 1010 29.83 839 24.78 -1.7 28.9 91 -3 26.7
17:45 1010 29.83 839 24.78 -1.7 29 92 -2.9 26.8
17:50 1010 29.83 839 24.78 -1.7 28.9 91 -3 26.5
17:55 1010 29.83 839 24.78 -1.7 28.9 90 -3.1 26.5
18:00 1010 29.83 839 24.78 -1.8 28.8 91 -3.1 26.4
18:05 1010 29.83 839 24.78 -1.9 28.5 91 -3.2 26.3
18:10 1010 29.83 839 24.78 -2.1 28.3 92 -3.1 26.3
18:15 1010 29.83 839 24.78 -2.1 28.2 92 -3.2 26.3
18:20 1010 29.83 839 24.78 -2.1 28.1 92 -3.2 26.2
18:25 1010 29.83 839 24.78 -2.2 28 93 -3.2 26.2
18:30 1010 29.83 839 24.78 -2.1 28.1 92 -3.2 26.2
18:35 1010 29.83 839 24.78 -2.3 27.8 92 -3.4 25.9
18:40 1010 29.83 839 24.78 -2.4 27.7 93 -3.4 25.8
18:45 1010 29.83 839 24.78 -2.5 27.6 92 -3.6 25.6
18:50 1010 29.83 840 24.81 -2.4 27.6 92 -3.6 25.5
18:55 1010 29.83 840 24.81 -2.6 27.4 91 -3.8 25.2
19:00 1010 29.83 840 24.81 -2.7 27.2 92 -3.7 25.3
19:05 1010 29.83 840 24.81 -2.8 27 93 -3.7 25.3
19:10 1010 29.83 840 24.81 -2.8 26.9 92 -3.9 24.9
19:15 1010 29.83 840 24.81 -2.8 26.9 93 -3.9 25
19:20 1011 29.85 840 24.81 -2.9 26.8 92 -4 24.8
19:25 1011 29.85 840 24.81 -3 26.6 92 -4.2 24.4
19:30 1011 29.85 840 24.81 -3 26.5 92 -4.1 24.6
19:35 1011 29.85 840 24.81 -3.1 26.5 92 -4.2 24.4
19:40 1011 29.85 840 24.81 -3.1 26.5 92 -4.3 24.3
19:45 1011 29.85 840 24.81 -3 26.6 91 -4.2 24.4
19:50 1011 29.85 840 24.81 -2.9 26.8 90 -4.3 24.2
19:55 1011 29.85 840 24.81 -2.9 26.8 90 -4.3 24.2
20:00 1011 29.85 840 24.81 -2.9 26.8 90 -4.3 24.2
20:05 1011 29.85 840 24.81 -3.1 26.5 89 -4.7 23.6
20:10 1011 29.85 840 24.81 -3.2 26.2 90 -4.6 23.7
20:15 1011 29.85 840 24.81 -3.3 26.1 91 -4.5 23.8
20:20 1011 29.85 840 24.81 -3.3 26 91 -4.6 23.8
20:25 1011 29.85 840 24.81 -3.4 26 91 -4.6 23.7
20:30 1011 29.85 840 24.81 -3.4 25.8 91 -4.7 23.5
20:35 1011 29.85 840 24.81 -3.5 25.8 91 -4.7 23.5
20:40 1011 29.85 840 24.81 -3.6 25.5 92 -4.7 23.5
20:45 1011 29.85 840 24.81 -3.6 25.6 92 -4.7 23.6
20:50 1011 29.85 840 24.81 -3.6 25.5 92 -4.8 23.4
20:55 1011 29.85 840 24.81 -3.7 25.3 92 -4.8 23.4
21:00 1011 29.85 840 24.81 -3.8 25.2 92 -4.8 23.3
21:05 1011 29.85 840 24.81 -3.8 25.1 92 -4.9 23.1
21:10 1011 29.85 840 24.81 -3.9 24.9 93 -4.9 23.1
21:15 1011 29.85 840 24.81 -3.9 24.9 92 -5.1 22.8
21:20 1011 29.85 840 24.81 -4.1 24.6 92 -5.2 22.7
21:25 1011 29.85 840 24.81 -4.2 24.5 93 -5.2 22.7
21:30 1011 29.85 840 24.81 -4.2 24.4 93 -5.3 22.5
21:35 1011 29.85 841 24.83 -4.4 24.2 94 -5.2 22.7
21:40 1011 29.85 841 24.83 -4.4 24.1 94 -5.2 22.6
21:45 1012 29.88 841 24.83 -4.3 24.3 94 -5.1 22.7
21:50 1012 29.88 841 24.83 -4.3 24.4 94 -5.1 22.7
21:55 1012 29.88 841 24.83 -4.3 24.3 93 -5.2 22.6
22:00 1012 29.88 841 24.83 -4.2 24.4 92 -5.3 22.5
22:05 1012 29.88 841 24.83 -4.2 24.4 92 -5.4 22.3
22:10 1012 29.88 841 24.83 -4.3 24.3 92 -5.4 22.2
22:15 1012 29.88 841 24.83 -4.3 24.3 92 -5.5 22.2
22:20 1012 29.88 841 24.83 -4.3 24.3 92 -5.5 22.1
22:25 1012 29.88 841 24.83 -4.3 24.2 89 -5.9 21.4
22:30 1012 29.88 841 24.83 -4.5 23.9 89 -6 21.2
22:35 1012 29.88 841 24.83 -4.5 23.9 88 -6.1 21
22:40 1012 29.88 841 24.83 -4.5 23.8 89 -6.1 20.9
22:45 1012 29.88 841 24.83 -4.6 23.8 88 -6.2 20.8
22:50 1012 29.88 841 24.83 -4.6 23.7 88 -6.2 20.8
22:55 1012 29.88 841 24.83 -4.6 23.6 89 -6.3 20.7
23:00 1012 29.88 841 24.83 -4.7 23.5 89 -6.3 20.6
23:05 1012 29.88 841 24.83 -4.8 23.3 90 -6.3 20.7
23:10 1012 29.88 841 24.83 -4.9 23.2 89 -6.4 20.5
23:15 1012 29.88 841 24.83 -5 23 90 -6.4 20.5
23:20 1012 29.88 841 24.83 -5 22.9 90 -6.4 20.4
23:25 1012 29.88 841 24.83 -5.1 22.9 90 -6.4 20.5
23:30 1012 29.88 841 24.83 -5.1 22.8 90 -6.5 20.4
23:35 1011 29.85 841 24.83 -5.1 22.7 90 -6.5 20.3
23:40 1011 29.85 841 24.83 -5.2 22.7 90 -6.5 20.3
23:45 1011 29.85 841 24.83 -5.1 22.8 90 -6.6 20.2
23:50 1011 29.85 841 24.83 -5.1 22.9 89 -6.5 20.2
23:55 1011 29.85 841 24.83 -5 22.9 90 -6.4 20.5
24:00 1011 29.85 841 24.83 -5.2 22.7 91 -6.5 20.4